sensor_id;sensor_type;location;lat;lon;timestamp;P1;durP1;ratioP1;P2;durP2;ratioP2
40288;SDS011;28991;52.028;5.526;2023-02-28T00:02:20;0.70;;;0.70;;
40288;SDS011;28991;52.028;5.526;2023-02-28T00:04:46;0.80;;;0.80;;
40288;SDS011;28991;52.028;5.526;2023-02-28T00:07:25;1.10;;;0.70;;
40288;SDS011;28991;52.028;5.526;2023-02-28T00:09:52;1.10;;;0.60;;
40288;SDS011;28991;52.028;5.526;2023-02-28T00:12:18;0.57;;;0.57;;
40288;SDS011;28991;52.028;5.526;2023-02-28T00:14:44;1.27;;;0.70;;
40288;SDS011;28991;52.028;5.526;2023-02-28T00:17:09;0.68;;;0.68;;
40288;SDS011;28991;52.028;5.526;2023-02-28T00:19:35;0.80;;;0.80;;
40288;SDS011;28991;52.028;5.526;2023-02-28T00:22:00;1.40;;;0.77;;
40288;SDS011;28991;52.028;5.526;2023-02-28T00:24:26;1.15;;;0.80;;
40288;SDS011;28991;52.028;5.526;2023-02-28T00:26:51;1.25;;;0.90;;
40288;SDS011;28991;52.028;5.526;2023-02-28T00:29:17;0.73;;;0.70;;
40288;SDS011;28991;52.028;5.526;2023-02-28T00:31:43;1.02;;;0.75;;
40288;SDS011;28991;52.028;5.526;2023-02-28T00:34:08;0.80;;;0.80;;
40288;SDS011;28991;52.028;5.526;2023-02-28T00:36:34;0.80;;;0.80;;
40288;SDS011;28991;52.028;5.526;2023-02-28T00:38:59;0.73;;;0.73;;
40288;SDS011;28991;52.028;5.526;2023-02-28T00:41:25;1.02;;;0.80;;
40288;SDS011;28991;52.028;5.526;2023-02-28T00:43:51;1.95;;;1.20;;
40288;SDS011;28991;52.028;5.526;2023-02-28T00:46:16;1.17;;;0.80;;
40288;SDS011;28991;52.028;5.526;2023-02-28T00:48:42;1.02;;;0.90;;
40288;SDS011;28991;52.028;5.526;2023-02-28T00:51:08;0.80;;;0.80;;
40288;SDS011;28991;52.028;5.526;2023-02-28T00:53:33;0.82;;;0.82;;
40288;SDS011;28991;52.028;5.526;2023-02-28T00:55:59;1.25;;;1.00;;
40288;SDS011;28991;52.028;5.526;2023-02-28T00:58:25;0.98;;;0.70;;
40288;SDS011;28991;52.028;5.526;2023-02-28T01:00:51;0.68;;;0.68;;
40288;SDS011;28991;52.028;5.526;2023-02-28T01:03:18;1.75;;;0.88;;
40288;SDS011;28991;52.028;5.526;2023-02-28T01:05:45;1.25;;;0.88;;
40288;SDS011;28991;52.028;5.526;2023-02-28T01:08:11;1.13;;;0.90;;
40288;SDS011;28991;52.028;5.526;2023-02-28T01:10:38;1.35;;;0.70;;
40288;SDS011;28991;52.028;5.526;2023-02-28T01:13:04;0.70;;;0.70;;
40288;SDS011;28991;52.028;5.526;2023-02-28T01:15:30;0.80;;;0.60;;
40288;SDS011;28991;52.028;5.526;2023-02-28T01:17:56;1.08;;;0.70;;
40288;SDS011;28991;52.028;5.526;2023-02-28T01:20:22;1.13;;;0.98;;
40288;SDS011;28991;52.028;5.526;2023-02-28T01:22:48;0.80;;;0.80;;
40288;SDS011;28991;52.028;5.526;2023-02-28T01:25:14;0.82;;;0.80;;
40288;SDS011;28991;52.028;5.526;2023-02-28T01:27:39;1.02;;;0.80;;
40288;SDS011;28991;52.028;5.526;2023-02-28T01:30:06;1.40;;;0.90;;
40288;SDS011;28991;52.028;5.526;2023-02-28T01:32:32;0.75;;;0.70;;
40288;SDS011;28991;52.028;5.526;2023-02-28T01:34:58;1.00;;;0.90;;
40288;SDS011;28991;52.028;5.526;2023-02-28T01:37:23;0.80;;;0.80;;
40288;SDS011;28991;52.028;5.526;2023-02-28T01:39:49;1.20;;;1.00;;
40288;SDS011;28991;52.028;5.526;2023-02-28T01:42:15;0.82;;;0.80;;
40288;SDS011;28991;52.028;5.526;2023-02-28T01:47:32;1.02;;;0.90;;
40288;SDS011;28991;52.028;5.526;2023-02-28T01:50:06;1.13;;;0.98;;
40288;SDS011;28991;52.028;5.526;2023-02-28T01:52:34;1.08;;;0.80;;
40288;SDS011;28991;52.028;5.526;2023-02-28T01:55:01;1.38;;;1.00;;
40288;SDS011;28991;52.028;5.526;2023-02-28T01:57:30;1.00;;;0.90;;
40288;SDS011;28991;52.028;5.526;2023-02-28T02:00:07;0.88;;;0.88;;
40288;SDS011;28991;52.028;5.526;2023-02-28T02:02:34;0.95;;;0.80;;
40288;SDS011;28991;52.028;5.526;2023-02-28T02:05:08;0.73;;;0.73;;
40288;SDS011;28991;52.028;5.526;2023-02-28T02:07:37;1.02;;;0.90;;
40288;SDS011;28991;52.028;5.526;2023-02-28T02:10:50;1.15;;;0.80;;
40288;SDS011;28991;52.028;5.526;2023-02-28T02:18:25;1.00;;;0.90;;
40288;SDS011;28991;52.028;5.526;2023-02-28T02:24:03;0.80;;;0.80;;
40288;SDS011;28991;52.028;5.526;2023-02-28T02:40:16;1.13;;;0.90;;
40288;SDS011;28991;52.028;5.526;2023-02-28T02:45:34;0.82;;;0.68;;
40288;SDS011;28991;52.028;5.526;2023-02-28T02:48:08;2.05;;;1.20;;
40288;SDS011;28991;52.028;5.526;2023-02-28T02:50:39;1.00;;;0.90;;
40288;SDS011;28991;52.028;5.526;2023-02-28T02:53:08;1.48;;;1.00;;
40288;SDS011;28991;52.028;5.526;2023-02-28T02:55:38;0.82;;;0.73;;
40288;SDS011;28991;52.028;5.526;2023-02-28T02:58:14;1.25;;;1.00;;
40288;SDS011;28991;52.028;5.526;2023-02-28T03:00:45;1.15;;;0.93;;
40288;SDS011;28991;52.028;5.526;2023-02-28T03:03:15;1.48;;;1.10;;
40288;SDS011;28991;52.028;5.526;2023-02-28T03:05:48;1.10;;;1.00;;
40288;SDS011;28991;52.028;5.526;2023-02-28T03:08:15;1.20;;;1.10;;
40288;SDS011;28991;52.028;5.526;2023-02-28T03:10:42;1.42;;;1.00;;
40288;SDS011;28991;52.028;5.526;2023-02-28T03:19:25;0.77;;;0.77;;
40288;SDS011;28991;52.028;5.526;2023-02-28T03:22:22;1.20;;;0.90;;
40288;SDS011;28991;52.028;5.526;2023-02-28T03:30:54;1.05;;;0.90;;
40288;SDS011;28991;52.028;5.526;2023-02-28T03:33:42;2.85;;;1.00;;
40288;SDS011;28991;52.028;5.526;2023-02-28T03:36:29;1.55;;;0.95;;
40288;SDS011;28991;52.028;5.526;2023-02-28T03:39:09;0.82;;;0.80;;
40288;SDS011;28991;52.028;5.526;2023-02-28T03:42:05;0.82;;;0.82;;
40288;SDS011;28991;52.028;5.526;2023-02-28T03:44:36;1.13;;;0.85;;
40288;SDS011;28991;52.028;5.526;2023-02-28T03:47:11;1.25;;;0.80;;
40288;SDS011;28991;52.028;5.526;2023-02-28T03:49:45;1.17;;;1.05;;
40288;SDS011;28991;52.028;5.526;2023-02-28T03:52:14;0.98;;;0.90;;
40288;SDS011;28991;52.028;5.526;2023-02-28T03:54:47;0.98;;;0.90;;
40288;SDS011;28991;52.028;5.526;2023-02-28T03:57:20;0.93;;;0.80;;
40288;SDS011;28991;52.028;5.526;2023-02-28T04:00:10;0.75;;;0.75;;
40288;SDS011;28991;52.028;5.526;2023-02-28T04:02:42;1.08;;;0.82;;
40288;SDS011;28991;52.028;5.526;2023-02-28T04:05:08;0.90;;;0.80;;
40288;SDS011;28991;52.028;5.526;2023-02-28T04:07:34;1.85;;;1.00;;
40288;SDS011;28991;52.028;5.526;2023-02-28T04:10:00;0.80;;;0.70;;
40288;SDS011;28991;52.028;5.526;2023-02-28T04:12:26;0.73;;;0.70;;
40288;SDS011;28991;52.028;5.526;2023-02-28T04:14:51;1.13;;;0.90;;
40288;SDS011;28991;52.028;5.526;2023-02-28T04:17:17;0.80;;;0.77;;
40288;SDS011;28991;52.028;5.526;2023-02-28T04:19:43;1.30;;;1.08;;
40288;SDS011;28991;52.028;5.526;2023-02-28T04:22:09;0.95;;;0.80;;
40288;SDS011;28991;52.028;5.526;2023-02-28T04:24:35;1.08;;;1.00;;
40288;SDS011;28991;52.028;5.526;2023-02-28T04:27:01;0.80;;;0.80;;
40288;SDS011;28991;52.028;5.526;2023-02-28T04:29:28;1.10;;;1.00;;
40288;SDS011;28991;52.028;5.526;2023-02-28T04:31:56;1.08;;;0.80;;
40288;SDS011;28991;52.028;5.526;2023-02-28T04:34:22;1.00;;;0.90;;
40288;SDS011;28991;52.028;5.526;2023-02-28T04:36:49;1.00;;;0.90;;
40288;SDS011;28991;52.028;5.526;2023-02-28T04:39:15;1.15;;;0.73;;
40288;SDS011;28991;52.028;5.526;2023-02-28T04:41:43;0.98;;;0.88;;
40288;SDS011;28991;52.028;5.526;2023-02-28T04:44:09;0.73;;;0.73;;
40288;SDS011;28991;52.028;5.526;2023-02-28T04:46:35;1.30;;;1.20;;
40288;SDS011;28991;52.028;5.526;2023-02-28T04:49:01;1.13;;;0.85;;
40288;SDS011;28991;52.028;5.526;2023-02-28T04:51:27;2.35;;;1.33;;
40288;SDS011;28991;52.028;5.526;2023-02-28T04:53:52;1.05;;;0.70;;
40288;SDS011;28991;52.028;5.526;2023-02-28T04:56:19;0.80;;;0.80;;
40288;SDS011;28991;52.028;5.526;2023-02-28T04:58:45;1.45;;;1.00;;
40288;SDS011;28991;52.028;5.526;2023-02-28T05:03:44;0.75;;;0.65;;
40288;SDS011;28991;52.028;5.526;2023-02-28T05:06:10;0.95;;;0.80;;
40288;SDS011;28991;52.028;5.526;2023-02-28T05:08:37;1.05;;;0.90;;
40288;SDS011;28991;52.028;5.526;2023-02-28T05:11:03;0.90;;;0.80;;
40288;SDS011;28991;52.028;5.526;2023-02-28T05:13:31;1.10;;;1.00;;
40288;SDS011;28991;52.028;5.526;2023-02-28T05:15:56;1.00;;;0.90;;
40288;SDS011;28991;52.028;5.526;2023-02-28T05:18:22;0.80;;;0.80;;
40288;SDS011;28991;52.028;5.526;2023-02-28T05:20:47;1.40;;;0.95;;
40288;SDS011;28991;52.028;5.526;2023-02-28T05:23:13;1.05;;;0.80;;
40288;SDS011;28991;52.028;5.526;2023-02-28T05:25:40;0.98;;;0.88;;
40288;SDS011;28991;52.028;5.526;2023-02-28T05:28:06;0.93;;;0.88;;
40288;SDS011;28991;52.028;5.526;2023-02-28T05:30:32;1.23;;;0.90;;
40288;SDS011;28991;52.028;5.526;2023-02-28T05:32:58;1.00;;;0.77;;
40288;SDS011;28991;52.028;5.526;2023-02-28T05:35:23;1.08;;;0.93;;
40288;SDS011;28991;52.028;5.526;2023-02-28T05:37:49;1.48;;;0.90;;
40288;SDS011;28991;52.028;5.526;2023-02-28T05:40:15;0.77;;;0.70;;
40288;SDS011;28991;52.028;5.526;2023-02-28T05:42:41;0.90;;;0.82;;
40288;SDS011;28991;52.028;5.526;2023-02-28T05:45:07;1.08;;;0.85;;
40288;SDS011;28991;52.028;5.526;2023-02-28T05:47:34;1.30;;;0.90;;
40288;SDS011;28991;52.028;5.526;2023-02-28T05:49:59;1.08;;;0.98;;
40288;SDS011;28991;52.028;5.526;2023-02-28T05:52:26;1.25;;;1.05;;
40288;SDS011;28991;52.028;5.526;2023-02-28T05:54:51;1.10;;;1.00;;
40288;SDS011;28991;52.028;5.526;2023-02-28T05:57:17;0.90;;;0.82;;
40288;SDS011;28991;52.028;5.526;2023-02-28T05:59:42;1.10;;;1.00;;
40288;SDS011;28991;52.028;5.526;2023-02-28T06:02:17;1.00;;;0.90;;
40288;SDS011;28991;52.028;5.526;2023-02-28T06:04:43;1.42;;;0.98;;
40288;SDS011;28991;52.028;5.526;2023-02-28T06:07:09;1.20;;;0.77;;
40288;SDS011;28991;52.028;5.526;2023-02-28T06:09:35;0.80;;;0.80;;
40288;SDS011;28991;52.028;5.526;2023-02-28T06:12:03;0.60;;;0.60;;
40288;SDS011;28991;52.028;5.526;2023-02-28T06:14:30;1.30;;;1.10;;
40288;SDS011;28991;52.028;5.526;2023-02-28T06:16:57;1.00;;;0.90;;
40288;SDS011;28991;52.028;5.526;2023-02-28T06:19:24;1.67;;;0.90;;
40288;SDS011;28991;52.028;5.526;2023-02-28T06:21:53;0.80;;;0.80;;
40288;SDS011;28991;52.028;5.526;2023-02-28T06:24:21;1.23;;;1.13;;
40288;SDS011;28991;52.028;5.526;2023-02-28T06:26:49;1.02;;;0.90;;
40288;SDS011;28991;52.028;5.526;2023-02-28T06:29:15;0.77;;;0.77;;
40288;SDS011;28991;52.028;5.526;2023-02-28T06:31:41;1.02;;;0.90;;
40288;SDS011;28991;52.028;5.526;2023-02-28T06:34:08;0.95;;;0.95;;
40288;SDS011;28991;52.028;5.526;2023-02-28T06:36:36;1.00;;;0.90;;
40288;SDS011;28991;52.028;5.526;2023-02-28T06:39:06;1.00;;;0.90;;
40288;SDS011;28991;52.028;5.526;2023-02-28T06:41:32;1.05;;;0.95;;
40288;SDS011;28991;52.028;5.526;2023-02-28T06:44:02;0.70;;;0.70;;
40288;SDS011;28991;52.028;5.526;2023-02-28T06:46:38;0.77;;;0.77;;
40288;SDS011;28991;52.028;5.526;2023-02-28T06:49:05;0.95;;;0.88;;
40288;SDS011;28991;52.028;5.526;2023-02-28T06:51:33;0.80;;;0.80;;
40288;SDS011;28991;52.028;5.526;2023-02-28T06:53:59;1.10;;;1.00;;
40288;SDS011;28991;52.028;5.526;2023-02-28T06:56:25;0.75;;;0.75;;
40288;SDS011;28991;52.028;5.526;2023-02-28T06:58:51;1.15;;;1.00;;
40288;SDS011;28991;52.028;5.526;2023-02-28T07:01:18;0.70;;;0.70;;
40288;SDS011;28991;52.028;5.526;2023-02-28T07:03:44;0.68;;;0.68;;
40288;SDS011;28991;52.028;5.526;2023-02-28T07:06:10;1.38;;;0.82;;
40288;SDS011;28991;52.028;5.526;2023-02-28T07:08:36;1.13;;;0.88;;
40288;SDS011;28991;52.028;5.526;2023-02-28T07:11:02;0.60;;;0.60;;
40288;SDS011;28991;52.028;5.526;2023-02-28T07:13:28;0.90;;;0.90;;
40288;SDS011;28991;52.028;5.526;2023-02-28T07:15:54;1.00;;;0.88;;
40288;SDS011;28991;52.028;5.526;2023-02-28T07:18:21;0.70;;;0.70;;
40288;SDS011;28991;52.028;5.526;2023-02-28T07:20:47;1.20;;;0.93;;
40288;SDS011;28991;52.028;5.526;2023-02-28T07:23:12;0.65;;;0.65;;
40288;SDS011;28991;52.028;5.526;2023-02-28T07:25:38;1.20;;;0.80;;
40288;SDS011;28991;52.028;5.526;2023-02-28T07:28:04;1.10;;;1.00;;
40288;SDS011;28991;52.028;5.526;2023-02-28T07:30:29;1.48;;;0.88;;
40288;SDS011;28991;52.028;5.526;2023-02-28T07:32:55;1.08;;;0.85;;
40288;SDS011;28991;52.028;5.526;2023-02-28T07:35:21;0.73;;;0.70;;
40288;SDS011;28991;52.028;5.526;2023-02-28T07:37:47;0.90;;;0.88;;
40288;SDS011;28991;52.028;5.526;2023-02-28T07:40:13;0.60;;;0.60;;
40288;SDS011;28991;52.028;5.526;2023-02-28T07:42:39;1.00;;;0.80;;
40288;SDS011;28991;52.028;5.526;2023-02-28T07:45:06;0.95;;;0.80;;
40288;SDS011;28991;52.028;5.526;2023-02-28T07:47:33;1.42;;;0.80;;
40288;SDS011;28991;52.028;5.526;2023-02-28T07:49:59;0.98;;;0.70;;
40288;SDS011;28991;52.028;5.526;2023-02-28T07:52:24;0.60;;;0.60;;
40288;SDS011;28991;52.028;5.526;2023-02-28T07:54:50;0.73;;;0.70;;
40288;SDS011;28991;52.028;5.526;2023-02-28T07:57:16;0.50;;;0.50;;
40288;SDS011;28991;52.028;5.526;2023-02-28T07:59:42;2.05;;;0.88;;
40288;SDS011;28991;52.028;5.526;2023-02-28T08:02:12;0.80;;;0.80;;
40288;SDS011;28991;52.028;5.526;2023-02-28T08:04:39;0.80;;;0.70;;
40288;SDS011;28991;52.028;5.526;2023-02-28T08:07:05;0.80;;;0.80;;
40288;SDS011;28991;52.028;5.526;2023-02-28T08:09:30;0.88;;;0.80;;
40288;SDS011;28991;52.028;5.526;2023-02-28T08:11:56;0.70;;;0.70;;
40288;SDS011;28991;52.028;5.526;2023-02-28T08:14:22;0.88;;;0.80;;
40288;SDS011;28991;52.028;5.526;2023-02-28T08:16:47;0.63;;;0.63;;
40288;SDS011;28991;52.028;5.526;2023-02-28T08:19:16;0.60;;;0.60;;
40288;SDS011;28991;52.028;5.526;2023-02-28T08:21:42;0.70;;;0.70;;
40288;SDS011;28991;52.028;5.526;2023-02-28T08:24:07;0.82;;;0.63;;
40288;SDS011;28991;52.028;5.526;2023-02-28T08:26:33;0.50;;;0.50;;
40288;SDS011;28991;52.028;5.526;2023-02-28T08:28:58;0.70;;;0.68;;
40288;SDS011;28991;52.028;5.526;2023-02-28T08:31:24;0.93;;;0.65;;
40288;SDS011;28991;52.028;5.526;2023-02-28T08:33:50;0.73;;;0.50;;
40288;SDS011;28991;52.028;5.526;2023-02-28T08:36:17;0.65;;;0.60;;
40288;SDS011;28991;52.028;5.526;2023-02-28T08:38:44;0.55;;;0.55;;
40288;SDS011;28991;52.028;5.526;2023-02-28T08:41:11;1.05;;;0.95;;
40288;SDS011;28991;52.028;5.526;2023-02-28T08:43:37;0.70;;;0.70;;
40288;SDS011;28991;52.028;5.526;2023-02-28T08:46:04;1.00;;;0.90;;
40288;SDS011;28991;52.028;5.526;2023-02-28T08:48:32;0.70;;;0.70;;
40288;SDS011;28991;52.028;5.526;2023-02-28T08:53:30;0.65;;;0.50;;
40288;SDS011;28991;52.028;5.526;2023-02-28T08:55:59;0.75;;;0.70;;
40288;SDS011;28991;52.028;5.526;2023-02-28T08:58:27;0.60;;;0.60;;
40288;SDS011;28991;52.028;5.526;2023-02-28T09:00:53;0.50;;;0.50;;
40288;SDS011;28991;52.028;5.526;2023-02-28T09:03:19;0.50;;;0.50;;
40288;SDS011;28991;52.028;5.526;2023-02-28T09:05:52;0.40;;;0.40;;
40288;SDS011;28991;52.028;5.526;2023-02-28T09:08:18;0.70;;;0.57;;
40288;SDS011;28991;52.028;5.526;2023-02-28T09:10:43;0.50;;;0.50;;
40288;SDS011;28991;52.028;5.526;2023-02-28T09:13:09;0.63;;;0.50;;
40288;SDS011;28991;52.028;5.526;2023-02-28T09:15:34;0.90;;;0.73;;
40288;SDS011;28991;52.028;5.526;2023-02-28T09:18:02;0.90;;;0.65;;
40288;SDS011;28991;52.028;5.526;2023-02-28T09:20:28;0.60;;;0.60;;
40288;SDS011;28991;52.028;5.526;2023-02-28T09:22:53;1.25;;;0.63;;
40288;SDS011;28991;52.028;5.526;2023-02-28T09:25:19;0.70;;;0.70;;
40288;SDS011;28991;52.028;5.526;2023-02-28T09:27:44;0.98;;;0.80;;
40288;SDS011;28991;52.028;5.526;2023-02-28T09:30:10;0.77;;;0.77;;
40288;SDS011;28991;52.028;5.526;2023-02-28T09:32:37;0.73;;;0.60;;
40288;SDS011;28991;52.028;5.526;2023-02-28T09:35:02;0.90;;;0.70;;
40288;SDS011;28991;52.028;5.526;2023-02-28T09:37:28;1.13;;;0.85;;
40288;SDS011;28991;52.028;5.526;2023-02-28T09:39:56;1.23;;;0.85;;
40288;SDS011;28991;52.028;5.526;2023-02-28T09:42:23;0.82;;;0.82;;
40288;SDS011;28991;52.028;5.526;2023-02-28T09:44:54;0.57;;;0.57;;
40288;SDS011;28991;52.028;5.526;2023-02-28T09:47:35;0.90;;;0.90;;
40288;SDS011;28991;52.028;5.526;2023-02-28T09:52:58;0.77;;;0.77;;
40288;SDS011;28991;52.028;5.526;2023-02-28T09:58:02;0.77;;;0.77;;
40288;SDS011;28991;52.028;5.526;2023-02-28T10:00:36;0.80;;;0.80;;
40288;SDS011;28991;52.028;5.526;2023-02-28T10:08:45;0.70;;;0.70;;
40288;SDS011;28991;52.028;5.526;2023-02-28T10:11:26;1.00;;;0.80;;
40288;SDS011;28991;52.028;5.526;2023-02-28T10:19:31;0.65;;;0.65;;
40288;SDS011;28991;52.028;5.526;2023-02-28T10:27:15;0.52;;;0.52;;
40288;SDS011;28991;52.028;5.526;2023-02-28T10:29:45;0.98;;;0.70;;
40288;SDS011;28991;52.028;5.526;2023-02-28T10:32:14;0.68;;;0.60;;
40288;SDS011;28991;52.028;5.526;2023-02-28T10:34:55;0.60;;;0.60;;
40288;SDS011;28991;52.028;5.526;2023-02-28T10:39:57;0.70;;;0.70;;
40288;SDS011;28991;52.028;5.526;2023-02-28T10:42:26;0.98;;;0.70;;
40288;SDS011;28991;52.028;5.526;2023-02-28T10:45:04;0.75;;;0.60;;
40288;SDS011;28991;52.028;5.526;2023-02-28T10:47:32;0.70;;;0.70;;
40288;SDS011;28991;52.028;5.526;2023-02-28T10:49:59;0.60;;;0.60;;
40288;SDS011;28991;52.028;5.526;2023-02-28T10:52:32;0.85;;;0.60;;
40288;SDS011;28991;52.028;5.526;2023-02-28T10:57:59;1.35;;;0.77;;
40288;SDS011;28991;52.028;5.526;2023-02-28T11:00:25;0.70;;;0.70;;
40288;SDS011;28991;52.028;5.526;2023-02-28T11:02:56;0.68;;;0.68;;
40288;SDS011;28991;52.028;5.526;2023-02-28T11:05:26;2.42;;;0.70;;
40288;SDS011;28991;52.028;5.526;2023-02-28T11:07:58;1.40;;;0.65;;
40288;SDS011;28991;52.028;5.526;2023-02-28T11:10:31;0.63;;;0.60;;
40288;SDS011;28991;52.028;5.526;2023-02-28T11:12:59;0.90;;;0.70;;
40288;SDS011;28991;52.028;5.526;2023-02-28T11:15:27;0.70;;;0.60;;
40288;SDS011;28991;52.028;5.526;2023-02-28T11:17:54;2.22;;;1.17;;
40288;SDS011;28991;52.028;5.526;2023-02-28T11:20:23;0.43;;;0.43;;
40288;SDS011;28991;52.028;5.526;2023-02-28T11:22:51;0.68;;;0.68;;
40288;SDS011;28991;52.028;5.526;2023-02-28T11:27:49;0.60;;;0.60;;
40288;SDS011;28991;52.028;5.526;2023-02-28T11:33:37;0.63;;;0.60;;
40288;SDS011;28991;52.028;5.526;2023-02-28T11:36:02;1.02;;;0.70;;
40288;SDS011;28991;52.028;5.526;2023-02-28T11:38:34;1.75;;;0.80;;
40288;SDS011;28991;52.028;5.526;2023-02-28T11:41:17;0.77;;;0.77;;
40288;SDS011;28991;52.028;5.526;2023-02-28T11:46:57;0.82;;;0.80;;
40288;SDS011;28991;52.028;5.526;2023-02-28T11:52:10;0.57;;;0.57;;
40288;SDS011;28991;52.028;5.526;2023-02-28T11:54:47;0.55;;;0.55;;
40288;SDS011;28991;52.028;5.526;2023-02-28T12:00:00;0.57;;;0.57;;
40288;SDS011;28991;52.028;5.526;2023-02-28T12:08:36;0.82;;;0.70;;
40288;SDS011;28991;52.028;5.526;2023-02-28T12:13:46;0.82;;;0.70;;
40288;SDS011;28991;52.028;5.526;2023-02-28T12:16:26;0.85;;;0.60;;
40288;SDS011;28991;52.028;5.526;2023-02-28T12:26:50;0.50;;;0.50;;
40288;SDS011;28991;52.028;5.526;2023-02-28T12:29:25;1.40;;;0.63;;
40288;SDS011;28991;52.028;5.526;2023-02-28T12:32:11;0.75;;;0.75;;
40288;SDS011;28991;52.028;5.526;2023-02-28T12:37:32;0.52;;;0.52;;
40288;SDS011;28991;52.028;5.526;2023-02-28T12:40:10;0.75;;;0.50;;
40288;SDS011;28991;52.028;5.526;2023-02-28T12:42:48;0.50;;;0.50;;
40288;SDS011;28991;52.028;5.526;2023-02-28T12:45:30;0.50;;;0.40;;
40288;SDS011;28991;52.028;5.526;2023-02-28T12:48:01;0.50;;;0.50;;
40288;SDS011;28991;52.028;5.526;2023-02-28T12:50:30;0.40;;;0.40;;
40288;SDS011;28991;52.028;5.526;2023-02-28T12:53:13;0.40;;;0.40;;
40288;SDS011;28991;52.028;5.526;2023-02-28T12:55:57;0.60;;;0.60;;
40288;SDS011;28991;52.028;5.526;2023-02-28T12:58:50;1.05;;;0.90;;
40288;SDS011;28991;52.028;5.526;2023-02-28T13:09:17;0.40;;;0.40;;
40288;SDS011;28991;52.028;5.526;2023-02-28T13:11:46;0.38;;;0.38;;
40288;SDS011;28991;52.028;5.526;2023-02-28T13:17:18;0.70;;;0.60;;
40288;SDS011;28991;52.028;5.526;2023-02-28T13:19:46;0.63;;;0.45;;
40288;SDS011;28991;52.028;5.526;2023-02-28T13:22:37;0.40;;;0.40;;
40288;SDS011;28991;52.028;5.526;2023-02-28T13:27:50;0.50;;;0.50;;
40288;SDS011;28991;52.028;5.526;2023-02-28T13:35:45;0.73;;;0.50;;
40288;SDS011;28991;52.028;5.526;2023-02-28T13:38:16;0.40;;;0.40;;
40288;SDS011;28991;52.028;5.526;2023-02-28T13:40:50;0.50;;;0.50;;
40288;SDS011;28991;52.028;5.526;2023-02-28T13:43:16;0.47;;;0.47;;
40288;SDS011;28991;52.028;5.526;2023-02-28T13:46:06;0.35;;;0.35;;
40288;SDS011;28991;52.028;5.526;2023-02-28T13:48:37;0.50;;;0.50;;
40288;SDS011;28991;52.028;5.526;2023-02-28T13:51:25;0.47;;;0.47;;
40288;SDS011;28991;52.028;5.526;2023-02-28T13:54:02;0.40;;;0.40;;
40288;SDS011;28991;52.028;5.526;2023-02-28T13:56:35;0.47;;;0.47;;
40288;SDS011;28991;52.028;5.526;2023-02-28T14:01:55;0.50;;;0.50;;
40288;SDS011;28991;52.028;5.526;2023-02-28T14:04:41;0.90;;;0.43;;
40288;SDS011;28991;52.028;5.526;2023-02-28T14:07:21;0.35;;;0.35;;
40288;SDS011;28991;52.028;5.526;2023-02-28T14:09:53;0.47;;;0.40;;
40288;SDS011;28991;52.028;5.526;2023-02-28T14:15:36;0.47;;;0.43;;
40288;SDS011;28991;52.028;5.526;2023-02-28T14:18:06;0.40;;;0.40;;
40288;SDS011;28991;52.028;5.526;2023-02-28T14:20:47;0.50;;;0.47;;
40288;SDS011;28991;52.028;5.526;2023-02-28T14:23:32;0.30;;;0.30;;
40288;SDS011;28991;52.028;5.526;2023-02-28T14:26:10;0.40;;;0.40;;
40288;SDS011;28991;52.028;5.526;2023-02-28T14:31:54;0.40;;;0.40;;
40288;SDS011;28991;52.028;5.526;2023-02-28T14:34:42;0.40;;;0.40;;
40288;SDS011;28991;52.028;5.526;2023-02-28T14:37:20;0.30;;;0.30;;
40288;SDS011;28991;52.028;5.526;2023-02-28T14:39:51;0.40;;;0.40;;
40288;SDS011;28991;52.028;5.526;2023-02-28T14:42:32;0.38;;;0.38;;
40288;SDS011;28991;52.028;5.526;2023-02-28T14:44:59;0.47;;;0.47;;
40288;SDS011;28991;52.028;5.526;2023-02-28T14:47:30;0.50;;;0.50;;
40288;SDS011;28991;52.028;5.526;2023-02-28T14:49:59;0.68;;;0.47;;
40288;SDS011;28991;52.028;5.526;2023-02-28T14:52:29;0.40;;;0.40;;
40288;SDS011;28991;52.028;5.526;2023-02-28T14:54:58;0.32;;;0.32;;
40288;SDS011;28991;52.028;5.526;2023-02-28T14:57:26;0.90;;;0.50;;
40288;SDS011;28991;52.028;5.526;2023-02-28T15:02:41;0.40;;;0.40;;
40288;SDS011;28991;52.028;5.526;2023-02-28T15:07:44;0.40;;;0.40;;
40288;SDS011;28991;52.028;5.526;2023-02-28T15:10:13;0.40;;;0.40;;
40288;SDS011;28991;52.028;5.526;2023-02-28T15:12:51;0.30;;;0.30;;
40288;SDS011;28991;52.028;5.526;2023-02-28T15:15:19;0.40;;;0.40;;
40288;SDS011;28991;52.028;5.526;2023-02-28T15:17:47;0.40;;;0.40;;
40288;SDS011;28991;52.028;5.526;2023-02-28T15:20:19;0.40;;;0.40;;
40288;SDS011;28991;52.028;5.526;2023-02-28T15:22:46;0.47;;;0.47;;
40288;SDS011;28991;52.028;5.526;2023-02-28T15:25:15;0.47;;;0.47;;
40288;SDS011;28991;52.028;5.526;2023-02-28T15:27:45;0.40;;;0.40;;
40288;SDS011;28991;52.028;5.526;2023-02-28T15:30:21;0.40;;;0.40;;
40288;SDS011;28991;52.028;5.526;2023-02-28T15:33:05;0.40;;;0.40;;
40288;SDS011;28991;52.028;5.526;2023-02-28T15:40:53;0.45;;;0.45;;
40288;SDS011;28991;52.028;5.526;2023-02-28T15:43:31;0.40;;;0.40;;
40288;SDS011;28991;52.028;5.526;2023-02-28T15:46:02;0.43;;;0.43;;
40288;SDS011;28991;52.028;5.526;2023-02-28T15:48:30;0.30;;;0.30;;
40288;SDS011;28991;52.028;5.526;2023-02-28T15:51:09;0.50;;;0.40;;
40288;SDS011;28991;52.028;5.526;2023-02-28T15:53:48;0.40;;;0.40;;
40288;SDS011;28991;52.028;5.526;2023-02-28T15:56:25;0.40;;;0.40;;
40288;SDS011;28991;52.028;5.526;2023-02-28T15:58:57;0.32;;;0.32;;
40288;SDS011;28991;52.028;5.526;2023-02-28T16:01:37;0.60;;;0.45;;
40288;SDS011;28991;52.028;5.526;2023-02-28T16:04:17;0.40;;;0.40;;
40288;SDS011;28991;52.028;5.526;2023-02-28T16:06:45;0.30;;;0.30;;
40288;SDS011;28991;52.028;5.526;2023-02-28T16:09:22;0.40;;;0.40;;
40288;SDS011;28991;52.028;5.526;2023-02-28T16:11:48;0.30;;;0.30;;
40288;SDS011;28991;52.028;5.526;2023-02-28T16:14:27;0.98;;;0.47;;
40288;SDS011;28991;52.028;5.526;2023-02-28T16:16:57;0.40;;;0.40;;
40288;SDS011;28991;52.028;5.526;2023-02-28T16:19:29;0.40;;;0.40;;
40288;SDS011;28991;52.028;5.526;2023-02-28T16:21:55;0.30;;;0.30;;
40288;SDS011;28991;52.028;5.526;2023-02-28T16:24:21;0.45;;;0.45;;
40288;SDS011;28991;52.028;5.526;2023-02-28T16:26:47;0.50;;;0.40;;
40288;SDS011;28991;52.028;5.526;2023-02-28T16:29:22;0.40;;;0.40;;
40288;SDS011;28991;52.028;5.526;2023-02-28T16:31:57;0.40;;;0.40;;
40288;SDS011;28991;52.028;5.526;2023-02-28T16:34:23;0.38;;;0.38;;
40288;SDS011;28991;52.028;5.526;2023-02-28T16:36:49;0.45;;;0.45;;
40288;SDS011;28991;52.028;5.526;2023-02-28T16:39:15;0.38;;;0.38;;
40288;SDS011;28991;52.028;5.526;2023-02-28T16:41:44;0.80;;;0.30;;
40288;SDS011;28991;52.028;5.526;2023-02-28T16:44:11;0.30;;;0.30;;
40288;SDS011;28991;52.028;5.526;2023-02-28T16:49:10;0.30;;;0.30;;
40288;SDS011;28991;52.028;5.526;2023-02-28T16:51:37;0.50;;;0.50;;
40288;SDS011;28991;52.028;5.526;2023-02-28T16:54:03;0.68;;;0.45;;
40288;SDS011;28991;52.028;5.526;2023-02-28T16:56:29;1.20;;;0.50;;
40288;SDS011;28991;52.028;5.526;2023-02-28T16:58:55;0.57;;;0.57;;
40288;SDS011;28991;52.028;5.526;2023-02-28T17:01:25;0.35;;;0.30;;
40288;SDS011;28991;52.028;5.526;2023-02-28T17:03:52;0.52;;;0.50;;
40288;SDS011;28991;52.028;5.526;2023-02-28T17:06:25;0.50;;;0.50;;
40288;SDS011;28991;52.028;5.526;2023-02-28T17:08:55;0.47;;;0.40;;
40288;SDS011;28991;52.028;5.526;2023-02-28T17:11:22;0.40;;;0.40;;
40288;SDS011;28991;52.028;5.526;2023-02-28T17:13:49;0.40;;;0.40;;
40288;SDS011;28991;52.028;5.526;2023-02-28T17:16:36;0.50;;;0.50;;
40288;SDS011;28991;52.028;5.526;2023-02-28T17:19:02;0.50;;;0.50;;
40288;SDS011;28991;52.028;5.526;2023-02-28T17:21:30;0.38;;;0.38;;
40288;SDS011;28991;52.028;5.526;2023-02-28T17:23:58;0.70;;;0.70;;
40288;SDS011;28991;52.028;5.526;2023-02-28T17:26:23;0.30;;;0.30;;
40288;SDS011;28991;52.028;5.526;2023-02-28T17:28:53;0.35;;;0.35;;
40288;SDS011;28991;52.028;5.526;2023-02-28T17:31:21;0.40;;;0.40;;